Terminal Aerodrome Forecast
Issued by NWS

Home | Current Version | Previous Version | Text Only | Print | Product List | Glossary On
Versions: 1 2 3 4 5 6 7 8 9 10 11 12 13 14 15 16 17 18 19 20 21 22 23 24 25 26 27 28 29 30 31 32 33 34 35 36 37 38 39 40 41 42 43 44 45 46
000
FTUS41 KCTP 231736
TAFAOO
TAF
KAOO 231736Z 2318/2418 17008KT P6SM SCT080 BKN250
     FM240200 16007KT 4SM -RA BR OVC015 WS016/17040KT
     FM240600 16009G15KT 2SM -RA BR OVC007 WS015/17045KT
     FM241000 19010G20KT 3SM -DZ BR OVC002 WS015/18045KT
     FM241300 20012G25KT P6SM SCT007 BKN035 WS020/19040KT=

USA.gov is the U.S. government's official web portal to all federal, state and local government web resources and services.